sensor_id;sensor_type;location;lat;lon;timestamp;pressure;altitude;pressure_sealevel;temperature;humidity
84888;BME280;75150;54.494;18.518;2024-03-29T00:01:46;98457.59;;;7.92;76.37
84888;BME280;75150;54.494;18.518;2024-03-29T00:03:47;98447.88;;;7.93;76.08
84888;BME280;75150;54.494;18.518;2024-03-29T00:05:48;98452.84;;;7.96;75.86
84888;BME280;75150;54.494;18.518;2024-03-29T00:07:49;98456.03;;;8.00;75.78
84888;BME280;75150;54.494;18.518;2024-03-29T00:09:50;98457.50;;;8.02;75.50
84888;BME280;75150;54.494;18.518;2024-03-29T00:11:51;98460.97;;;8.03;74.89
84888;BME280;75150;54.494;18.518;2024-03-29T00:13:53;98460.97;;;8.03;75.02
84888;BME280;75150;54.494;18.518;2024-03-29T00:15:54;98462.13;;;8.00;74.70
84888;BME280;75150;54.494;18.518;2024-03-29T00:17:54;98471.97;;;7.98;74.23
84888;BME280;75150;54.494;18.518;2024-03-29T00:19:55;98466.34;;;7.93;72.77
84888;BME280;75150;54.494;18.518;2024-03-29T00:21:56;98464.00;;;7.90;73.89
84888;BME280;75150;54.494;18.518;2024-03-29T00:23:57;98460.97;;;7.85;74.00
84888;BME280;75150;54.494;18.518;2024-03-29T00:25:58;98477.41;;;7.79;74.25
84888;BME280;75150;54.494;18.518;2024-03-29T00:27:59;98483.28;;;7.73;74.11
84888;BME280;75150;54.494;18.518;2024-03-29T00:30:01;98482.09;;;7.67;73.78
84888;BME280;75150;54.494;18.518;2024-03-29T00:32:02;98495.84;;;7.61;74.29
84888;BME280;75150;54.494;18.518;2024-03-29T00:34:02;98503.91;;;7.59;74.04
84888;BME280;75150;54.494;18.518;2024-03-29T00:36:04;98505.56;;;7.60;74.19
84888;BME280;75150;54.494;18.518;2024-03-29T00:38:04;98515.69;;;7.65;74.14
84888;BME280;75150;54.494;18.518;2024-03-29T00:40:06;98504.81;;;7.68;74.26
84888;BME280;75150;54.494;18.518;2024-03-29T00:42:07;98510.47;;;7.73;74.06
84888;BME280;75150;54.494;18.518;2024-03-29T00:44:08;98512.00;;;7.76;73.57
84888;BME280;75150;54.494;18.518;2024-03-29T00:46:10;98517.78;;;7.79;73.31
84888;BME280;75150;54.494;18.518;2024-03-29T00:48:11;98528.84;;;7.83;73.38
84888;BME280;75150;54.494;18.518;2024-03-29T00:50:12;98524.56;;;7.82;73.40
84888;BME280;75150;54.494;18.518;2024-03-29T00:52:13;98531.66;;;7.81;72.95
84888;BME280;75150;54.494;18.518;2024-03-29T00:54:14;98532.09;;;7.77;72.81
84888;BME280;75150;54.494;18.518;2024-03-29T00:56:15;98535.31;;;7.71;72.41
84888;BME280;75150;54.494;18.518;2024-03-29T00:58:16;98545.78;;;7.62;72.58
84888;BME280;75150;54.494;18.518;2024-03-29T01:00:17;98552.63;;;7.55;73.15
84888;BME280;75150;54.494;18.518;2024-03-29T01:02:19;98558.63;;;7.48;73.18
84888;BME280;75150;54.494;18.518;2024-03-29T01:04:20;98561.03;;;7.41;73.24
84888;BME280;75150;54.494;18.518;2024-03-29T01:06:21;98562.56;;;7.34;73.09
84888;BME280;75150;54.494;18.518;2024-03-29T01:08:22;98571.19;;;7.26;73.44
84888;BME280;75150;54.494;18.518;2024-03-29T01:10:23;98574.28;;;7.22;73.11
84888;BME280;75150;54.494;18.518;2024-03-29T01:12:24;98576.22;;;7.20;73.64
84888;BME280;75150;54.494;18.518;2024-03-29T01:14:24;98577.22;;;7.19;73.39
84888;BME280;75150;54.494;18.518;2024-03-29T01:16:25;98586.75;;;7.20;73.55
84888;BME280;75150;54.494;18.518;2024-03-29T01:18:27;98586.75;;;7.20;73.10
84888;BME280;75150;54.494;18.518;2024-03-29T01:20:28;98589.25;;;7.21;73.61
84888;BME280;75150;54.494;18.518;2024-03-29T01:22:29;98585.09;;;7.19;73.22
84888;BME280;75150;54.494;18.518;2024-03-29T01:24:30;98600.91;;;7.19;72.02
84888;BME280;75150;54.494;18.518;2024-03-29T01:26:31;98610.31;;;7.21;72.52
84888;BME280;75150;54.494;18.518;2024-03-29T01:28:32;98604.22;;;7.21;71.01
84888;BME280;75150;54.494;18.518;2024-03-29T01:30:33;98611.00;;;7.23;71.30
84888;BME280;75150;54.494;18.518;2024-03-29T01:32:34;98622.53;;;7.22;71.55
84888;BME280;75150;54.494;18.518;2024-03-29T01:34:36;98619.22;;;7.20;71.38
84888;BME280;75150;54.494;18.518;2024-03-29T01:36:37;98627.25;;;7.19;71.34
84888;BME280;75150;54.494;18.518;2024-03-29T01:38:37;98628.22;;;7.18;71.32
84888;BME280;75150;54.494;18.518;2024-03-29T01:40:38;98638.19;;;7.14;71.17
84888;BME280;75150;54.494;18.518;2024-03-29T01:42:39;98642.25;;;7.09;70.80
84888;BME280;75150;54.494;18.518;2024-03-29T01:44:40;98640.06;;;7.04;71.14
84888;BME280;75150;54.494;18.518;2024-03-29T01:46:41;98635.34;;;6.98;70.77
84888;BME280;75150;54.494;18.518;2024-03-29T01:48:42;98634.13;;;6.92;70.88
84888;BME280;75150;54.494;18.518;2024-03-29T01:50:44;98638.66;;;6.90;70.88
84888;BME280;75150;54.494;18.518;2024-03-29T01:52:46;98645.19;;;6.86;71.10
84888;BME280;75150;54.494;18.518;2024-03-29T01:54:48;98646.75;;;6.79;71.03
84888;BME280;75150;54.494;18.518;2024-03-29T01:56:50;98649.25;;;6.71;70.93
84888;BME280;75150;54.494;18.518;2024-03-29T01:58:51;98645.63;;;6.62;71.22
84888;BME280;75150;54.494;18.518;2024-03-29T02:00:56;98644.66;;;6.54;71.40
84888;BME280;75150;54.494;18.518;2024-03-29T02:02:57;98656.19;;;6.43;71.77
84888;BME280;75150;54.494;18.518;2024-03-29T02:04:58;98656.31;;;6.32;71.94
84888;BME280;75150;54.494;18.518;2024-03-29T02:07:01;98661.13;;;6.27;72.36
84888;BME280;75150;54.494;18.518;2024-03-29T02:09:03;98674.69;;;6.22;72.22
84888;BME280;75150;54.494;18.518;2024-03-29T02:11:03;98669.00;;;6.17;72.45
84888;BME280;75150;54.494;18.518;2024-03-29T02:13:04;98678.56;;;6.08;72.38
84888;BME280;75150;54.494;18.518;2024-03-29T02:15:06;98685.31;;;6.01;72.35
84888;BME280;75150;54.494;18.518;2024-03-29T02:17:07;98682.41;;;5.95;72.71
84888;BME280;75150;54.494;18.518;2024-03-29T02:19:07;98694.56;;;5.96;72.62
84888;BME280;75150;54.494;18.518;2024-03-29T02:21:08;98703.28;;;5.96;72.31
84888;BME280;75150;54.494;18.518;2024-03-29T02:23:11;98703.66;;;5.92;72.32
84888;BME280;75150;54.494;18.518;2024-03-29T02:25:16;98715.53;;;5.86;72.91
84888;BME280;75150;54.494;18.518;2024-03-29T02:27:16;98726.41;;;5.81;72.45
84888;BME280;75150;54.494;18.518;2024-03-29T02:29:18;98727.53;;;5.79;73.04
84888;BME280;75150;54.494;18.518;2024-03-29T02:31:19;98730.56;;;5.74;72.64
84888;BME280;75150;54.494;18.518;2024-03-29T02:33:20;98734.44;;;5.70;73.12
84888;BME280;75150;54.494;18.518;2024-03-29T02:35:21;98741.03;;;5.65;72.69
84888;BME280;75150;54.494;18.518;2024-03-29T02:37:22;98742.38;;;5.59;73.12
84888;BME280;75150;54.494;18.518;2024-03-29T02:39:23;98746.22;;;5.55;73.41
84888;BME280;75150;54.494;18.518;2024-03-29T02:41:25;98744.25;;;5.47;73.46
84888;BME280;75150;54.494;18.518;2024-03-29T02:43:26;98750.72;;;5.43;73.09
84888;BME280;75150;54.494;18.518;2024-03-29T02:45:27;98750.28;;;5.38;73.33
84888;BME280;75150;54.494;18.518;2024-03-29T02:47:27;98752.47;;;5.33;73.70
84888;BME280;75150;54.494;18.518;2024-03-29T02:49:28;98747.84;;;5.25;73.25
84888;BME280;75150;54.494;18.518;2024-03-29T02:51:29;98755.41;;;5.19;73.50
84888;BME280;75150;54.494;18.518;2024-03-29T02:53:30;98761.88;;;5.15;73.60
84888;BME280;75150;54.494;18.518;2024-03-29T02:55:31;98759.75;;;5.09;74.14
84888;BME280;75150;54.494;18.518;2024-03-29T02:57:33;98759.88;;;5.07;73.86
84888;BME280;75150;54.494;18.518;2024-03-29T02:59:34;98763.59;;;5.05;74.18
84888;BME280;75150;54.494;18.518;2024-03-29T03:01:35;98770.19;;;4.99;74.17
84888;BME280;75150;54.494;18.518;2024-03-29T03:03:35;98770.53;;;4.94;73.93
84888;BME280;75150;54.494;18.518;2024-03-29T03:05:36;98770.94;;;4.90;74.18
84888;BME280;75150;54.494;18.518;2024-03-29T03:07:37;98780.72;;;4.88;74.62
84888;BME280;75150;54.494;18.518;2024-03-29T03:09:38;98784.31;;;4.87;74.41
84888;BME280;75150;54.494;18.518;2024-03-29T03:11:39;98781.00;;;4.85;74.63
84888;BME280;75150;54.494;18.518;2024-03-29T03:13:41;98787.16;;;4.84;74.47
84888;BME280;75150;54.494;18.518;2024-03-29T03:15:42;98786.59;;;4.80;74.83
84888;BME280;75150;54.494;18.518;2024-03-29T03:17:43;98784.81;;;4.81;74.68
84888;BME280;75150;54.494;18.518;2024-03-29T03:19:43;98778.59;;;4.82;74.57
84888;BME280;75150;54.494;18.518;2024-03-29T03:21:44;98783.13;;;4.80;74.67
84888;BME280;75150;54.494;18.518;2024-03-29T03:23:45;98790.19;;;4.79;74.67
84888;BME280;75150;54.494;18.518;2024-03-29T03:25:52;98791.13;;;4.78;74.67
84888;BME280;75150;54.494;18.518;2024-03-29T03:27:53;98797.09;;;4.80;74.81
84888;BME280;75150;54.494;18.518;2024-03-29T03:29:56;98796.25;;;4.80;74.87
84888;BME280;75150;54.494;18.518;2024-03-29T03:31:57;98802.06;;;4.83;74.88
84888;BME280;75150;54.494;18.518;2024-03-29T03:33:58;98809.38;;;4.80;74.59
84888;BME280;75150;54.494;18.518;2024-03-29T03:35:58;98811.41;;;4.76;75.24
84888;BME280;75150;54.494;18.518;2024-03-29T03:37:59;98808.09;;;4.74;74.93
84888;BME280;75150;54.494;18.518;2024-03-29T03:40:00;98809.28;;;4.70;75.03
84888;BME280;75150;54.494;18.518;2024-03-29T03:42:01;98805.25;;;4.66;74.98
84888;BME280;75150;54.494;18.518;2024-03-29T03:44:02;98807.03;;;4.65;75.08
84888;BME280;75150;54.494;18.518;2024-03-29T03:46:05;98811.84;;;4.60;75.34
84888;BME280;75150;54.494;18.518;2024-03-29T03:48:07;98807.06;;;4.54;75.49
84888;BME280;75150;54.494;18.518;2024-03-29T03:50:08;98808.13;;;4.52;75.53
84888;BME280;75150;54.494;18.518;2024-03-29T03:52:09;98804.69;;;4.51;76.09
84888;BME280;75150;54.494;18.518;2024-03-29T03:54:10;98800.97;;;4.54;76.07
84888;BME280;75150;54.494;18.518;2024-03-29T03:56:11;98810.13;;;4.59;75.87
84888;BME280;75150;54.494;18.518;2024-03-29T03:58:12;98806.31;;;4.63;76.01
84888;BME280;75150;54.494;18.518;2024-03-29T04:00:13;98797.38;;;4.66;76.02
84888;BME280;75150;54.494;18.518;2024-03-29T04:02:16;98809.28;;;4.70;75.91
84888;BME280;75150;54.494;18.518;2024-03-29T04:04:17;98798.66;;;4.71;75.93
84888;BME280;75150;54.494;18.518;2024-03-29T04:06:18;98809.97;;;4.72;75.96
84888;BME280;75150;54.494;18.518;2024-03-29T04:08:18;98809.88;;;4.74;75.65
84888;BME280;75150;54.494;18.518;2024-03-29T04:10:19;98816.19;;;4.71;75.66
84888;BME280;75150;54.494;18.518;2024-03-29T04:12:20;98816.44;;;4.68;75.76
84888;BME280;75150;54.494;18.518;2024-03-29T04:14:21;98822.53;;;4.68;75.76
84888;BME280;75150;54.494;18.518;2024-03-29T04:16:22;98827.66;;;4.70;75.69
84888;BME280;75150;54.494;18.518;2024-03-29T04:18:24;98826.94;;;4.68;76.21
84888;BME280;75150;54.494;18.518;2024-03-29T04:20:25;98815.88;;;4.64;76.12
84888;BME280;75150;54.494;18.518;2024-03-29T04:22:27;98828.97;;;4.64;76.21
84888;BME280;75150;54.494;18.518;2024-03-29T04:24:28;98825.28;;;4.67;76.13
84888;BME280;75150;54.494;18.518;2024-03-29T04:26:29;98830.25;;;4.70;75.98
84888;BME280;75150;54.494;18.518;2024-03-29T04:28:30;98832.88;;;4.70;75.73
84888;BME280;75150;54.494;18.518;2024-03-29T04:30:31;98840.88;;;4.68;76.21
84888;BME280;75150;54.494;18.518;2024-03-29T04:32:31;98838.38;;;4.67;76.23
84888;BME280;75150;54.494;18.518;2024-03-29T04:34:34;98834.09;;;4.66;76.29
84888;BME280;75150;54.494;18.518;2024-03-29T04:36:34;98837.69;;;4.65;76.28
84888;BME280;75150;54.494;18.518;2024-03-29T04:38:35;98838.25;;;4.68;75.89
84888;BME280;75150;54.494;18.518;2024-03-29T04:40:36;98837.56;;;4.66;75.84
84888;BME280;75150;54.494;18.518;2024-03-29T04:42:37;98839.47;;;4.64;75.79
84888;BME280;75150;54.494;18.518;2024-03-29T04:44:38;98840.06;;;4.68;76.01
84888;BME280;75150;54.494;18.518;2024-03-29T04:46:39;98829.44;;;4.69;76.22
84888;BME280;75150;54.494;18.518;2024-03-29T04:48:41;98831.94;;;4.71;75.77
84888;BME280;75150;54.494;18.518;2024-03-29T04:50:44;98824.91;;;4.71;75.80
84888;BME280;75150;54.494;18.518;2024-03-29T04:52:45;98832.75;;;4.71;75.60
84888;BME280;75150;54.494;18.518;2024-03-29T04:54:46;98831.09;;;4.70;75.61
84888;BME280;75150;54.494;18.518;2024-03-29T04:56:46;98837.09;;;4.73;76.09
84888;BME280;75150;54.494;18.518;2024-03-29T04:58:47;98835.16;;;4.75;76.06
84888;BME280;75150;54.494;18.518;2024-03-29T05:00:48;98827.88;;;4.78;76.06
84888;BME280;75150;54.494;18.518;2024-03-29T05:02:49;98824.03;;;4.82;75.98
84888;BME280;75150;54.494;18.518;2024-03-29T05:04:50;98842.28;;;4.84;75.85
84888;BME280;75150;54.494;18.518;2024-03-29T05:06:52;98842.06;;;4.87;75.61
84888;BME280;75150;54.494;18.518;2024-03-29T05:08:53;98839.16;;;4.90;75.42
84888;BME280;75150;54.494;18.518;2024-03-29T05:10:54;98845.81;;;4.94;75.50
84888;BME280;75150;54.494;18.518;2024-03-29T05:12:55;98837.81;;;4.95;75.34
84888;BME280;75150;54.494;18.518;2024-03-29T05:14:56;98844.25;;;5.03;75.29
84888;BME280;75150;54.494;18.518;2024-03-29T05:16:56;98844.63;;;5.09;75.28
84888;BME280;75150;54.494;18.518;2024-03-29T05:18:57;98840.06;;;5.11;75.53
84888;BME280;75150;54.494;18.518;2024-03-29T05:20:58;98846.47;;;5.18;75.20
84888;BME280;75150;54.494;18.518;2024-03-29T05:23:00;98844.06;;;5.26;74.88
84888;BME280;75150;54.494;18.518;2024-03-29T05:25:01;98842.69;;;5.32;74.83
84888;BME280;75150;54.494;18.518;2024-03-29T05:27:02;98842.47;;;5.35;75.11
84888;BME280;75150;54.494;18.518;2024-03-29T05:29:03;98839.59;;;5.38;74.93
84888;BME280;75150;54.494;18.518;2024-03-29T05:31:11;98837.53;;;5.42;74.79
84888;BME280;75150;54.494;18.518;2024-03-29T05:33:13;98842.28;;;5.48;74.99
84888;BME280;75150;54.494;18.518;2024-03-29T05:35:13;98852.28;;;5.54;74.40
84888;BME280;75150;54.494;18.518;2024-03-29T05:37:14;98849.16;;;5.60;74.40
84888;BME280;75150;54.494;18.518;2024-03-29T05:39:16;98850.97;;;5.69;74.40
84888;BME280;75150;54.494;18.518;2024-03-29T05:41:17;98851.88;;;5.79;74.33
84888;BME280;75150;54.494;18.518;2024-03-29T05:43:18;98850.50;;;5.96;74.24
84888;BME280;75150;54.494;18.518;2024-03-29T05:45:24;98845.66;;;6.22;73.65
84888;BME280;75150;54.494;18.518;2024-03-29T05:47:25;98840.34;;;6.53;73.62
84888;BME280;75150;54.494;18.518;2024-03-29T05:49:26;98846.66;;;6.81;73.56
84888;BME280;75150;54.494;18.518;2024-03-29T05:51:27;98849.91;;;7.03;72.74
84888;BME280;75150;54.494;18.518;2024-03-29T05:53:28;98852.53;;;7.23;72.29
84888;BME280;75150;54.494;18.518;2024-03-29T05:55:30;98847.97;;;7.34;71.40
84888;BME280;75150;54.494;18.518;2024-03-29T05:57:31;98858.50;;;7.44;71.12
84888;BME280;75150;54.494;18.518;2024-03-29T05:59:31;98856.56;;;7.46;71.31
84888;BME280;75150;54.494;18.518;2024-03-29T06:01:32;98862.50;;;7.39;71.13
84888;BME280;75150;54.494;18.518;2024-03-29T06:03:33;98865.03;;;7.30;70.05
84888;BME280;75150;54.494;18.518;2024-03-29T06:05:34;98869.03;;;7.34;71.11
84888;BME280;75150;54.494;18.518;2024-03-29T06:07:35;98859.34;;;7.54;70.69
84888;BME280;75150;54.494;18.518;2024-03-29T06:09:36;98862.91;;;7.82;69.33
84888;BME280;75150;54.494;18.518;2024-03-29T06:11:38;98864.59;;;8.20;68.97
84888;BME280;75150;54.494;18.518;2024-03-29T06:13:39;98861.41;;;8.64;69.57
84888;BME280;75150;54.494;18.518;2024-03-29T06:15:40;98870.72;;;9.13;69.69
84888;BME280;75150;54.494;18.518;2024-03-29T06:17:41;98863.75;;;9.83;67.06
84888;BME280;75150;54.494;18.518;2024-03-29T06:19:41;98875.19;;;10.36;67.71
84888;BME280;75150;54.494;18.518;2024-03-29T06:21:42;98869.22;;;10.68;66.48
84888;BME280;75150;54.494;18.518;2024-03-29T06:23:43;98870.19;;;11.17;66.10
84888;BME280;75150;54.494;18.518;2024-03-29T06:25:44;98866.94;;;11.80;62.53
84888;BME280;75150;54.494;18.518;2024-03-29T06:27:46;98859.22;;;12.34;56.01
84888;BME280;75150;54.494;18.518;2024-03-29T06:29:48;98857.16;;;13.00;62.67
84888;BME280;75150;54.494;18.518;2024-03-29T06:31:49;98863.66;;;13.74;62.25
84888;BME280;75150;54.494;18.518;2024-03-29T06:33:49;98874.22;;;14.20;60.57
84888;BME280;75150;54.494;18.518;2024-03-29T06:35:53;98872.03;;;14.53;57.11
84888;BME280;75150;54.494;18.518;2024-03-29T06:37:55;98871.91;;;15.05;59.61
84888;BME280;75150;54.494;18.518;2024-03-29T06:39:56;98872.91;;;15.76;56.78
84888;BME280;75150;54.494;18.518;2024-03-29T06:41:57;98870.22;;;16.32;57.52
84888;BME280;75150;54.494;18.518;2024-03-29T06:43:59;98862.59;;;16.98;55.63
84888;BME280;75150;54.494;18.518;2024-03-29T06:46:00;98868.66;;;17.27;53.87
84888;BME280;75150;54.494;18.518;2024-03-29T06:48:01;98884.59;;;17.62;53.83
84888;BME280;75150;54.494;18.518;2024-03-29T06:50:02;98879.63;;;17.45;50.50
84888;BME280;75150;54.494;18.518;2024-03-29T06:52:03;98883.31;;;17.38;49.96
84888;BME280;75150;54.494;18.518;2024-03-29T06:54:04;98882.72;;;17.55;48.51
84888;BME280;75150;54.494;18.518;2024-03-29T06:56:05;98892.25;;;17.78;50.45
84888;BME280;75150;54.494;18.518;2024-03-29T06:58:07;98892.09;;;18.19;50.21
84888;BME280;75150;54.494;18.518;2024-03-29T07:00:10;98897.81;;;18.49;44.66
84888;BME280;75150;54.494;18.518;2024-03-29T07:02:12;98889.97;;;18.54;44.09
84888;BME280;75150;54.494;18.518;2024-03-29T07:04:12;98890.59;;;18.56;46.71
84888;BME280;75150;54.494;18.518;2024-03-29T07:06:13;98899.03;;;18.53;46.85
84888;BME280;75150;54.494;18.518;2024-03-29T07:08:14;98905.00;;;18.75;43.97
84888;BME280;75150;54.494;18.518;2024-03-29T07:10:15;98906.44;;;18.91;45.69
84888;BME280;75150;54.494;18.518;2024-03-29T07:12:16;98912.88;;;18.70;41.07
84888;BME280;75150;54.494;18.518;2024-03-29T07:14:18;98921.34;;;18.47;44.69
84888;BME280;75150;54.494;18.518;2024-03-29T07:16:20;98923.59;;;18.57;41.80
84888;BME280;75150;54.494;18.518;2024-03-29T07:18:21;98918.22;;;18.50;44.72
84888;BME280;75150;54.494;18.518;2024-03-29T07:20:22;98914.59;;;19.09;44.48
84888;BME280;75150;54.494;18.518;2024-03-29T07:22:23;98921.75;;;19.73;44.32
84888;BME280;75150;54.494;18.518;2024-03-29T07:24:24;98935.09;;;19.86;41.38
84888;BME280;75150;54.494;18.518;2024-03-29T07:26:25;98941.03;;;19.95;41.41
84888;BME280;75150;54.494;18.518;2024-03-29T07:28:26;98945.00;;;20.17;40.09
84888;BME280;75150;54.494;18.518;2024-03-29T07:30:27;98944.06;;;20.05;41.97
84888;BME280;75150;54.494;18.518;2024-03-29T07:32:29;98960.69;;;20.20;36.63
84888;BME280;75150;54.494;18.518;2024-03-29T07:34:30;98964.41;;;19.95;38.67
84888;BME280;75150;54.494;18.518;2024-03-29T07:36:30;98963.09;;;19.72;35.70
84888;BME280;75150;54.494;18.518;2024-03-29T07:38:31;98969.13;;;19.68;40.88
84888;BME280;75150;54.494;18.518;2024-03-29T07:40:32;98973.44;;;19.75;39.00
84888;BME280;75150;54.494;18.518;2024-03-29T07:42:33;98974.78;;;19.91;36.36
84888;BME280;75150;54.494;18.518;2024-03-29T07:44:34;98983.97;;;19.77;39.33
84888;BME280;75150;54.494;18.518;2024-03-29T07:46:36;98987.47;;;19.77;37.50
84888;BME280;75150;54.494;18.518;2024-03-29T07:48:38;98993.22;;;19.87;37.23
84888;BME280;75150;54.494;18.518;2024-03-29T07:50:39;98988.69;;;19.81;37.13
84888;BME280;75150;54.494;18.518;2024-03-29T07:52:40;98998.09;;;19.59;34.39
84888;BME280;75150;54.494;18.518;2024-03-29T07:54:41;99002.03;;;19.95;38.76
84888;BME280;75150;54.494;18.518;2024-03-29T07:56:41;98995.03;;;20.25;35.63
84888;BME280;75150;54.494;18.518;2024-03-29T07:58:42;99005.38;;;20.22;38.11
84888;BME280;75150;54.494;18.518;2024-03-29T08:00:43;99009.25;;;20.32;35.61
84888;BME280;75150;54.494;18.518;2024-03-29T08:02:44;99008.56;;;20.43;34.75
84888;BME280;75150;54.494;18.518;2024-03-29T08:04:46;99009.06;;;20.59;35.93
84888;BME280;75150;54.494;18.518;2024-03-29T08:06:47;99012.63;;;20.53;35.45
84888;BME280;75150;54.494;18.518;2024-03-29T08:08:48;99014.44;;;20.59;37.68
84888;BME280;75150;54.494;18.518;2024-03-29T08:10:49;99009.69;;;20.61;36.08
84888;BME280;75150;54.494;18.518;2024-03-29T08:12:50;99004.31;;;20.29;33.78
84888;BME280;75150;54.494;18.518;2024-03-29T08:14:51;99021.31;;;20.55;36.93
84888;BME280;75150;54.494;18.518;2024-03-29T08:16:52;99022.06;;;20.87;36.98
84888;BME280;75150;54.494;18.518;2024-03-29T08:18:53;99016.94;;;21.03;36.05
84888;BME280;75150;54.494;18.518;2024-03-29T08:20:55;99010.03;;;21.32;35.54
84888;BME280;75150;54.494;18.518;2024-03-29T08:22:58;99010.47;;;21.96;36.51
84888;BME280;75150;54.494;18.518;2024-03-29T08:24:58;99008.66;;;22.73;36.37
84888;BME280;75150;54.494;18.518;2024-03-29T08:26:59;99012.44;;;23.19;35.33
84888;BME280;75150;54.494;18.518;2024-03-29T08:29:00;99020.19;;;23.27;34.21
84888;BME280;75150;54.494;18.518;2024-03-29T08:31:04;99013.59;;;23.23;31.57
84888;BME280;75150;54.494;18.518;2024-03-29T08:33:05;99014.16;;;23.25;33.31
84888;BME280;75150;54.494;18.518;2024-03-29T08:35:06;99015.50;;;22.88;33.12
84888;BME280;75150;54.494;18.518;2024-03-29T08:37:08;99029.38;;;23.03;33.72
84888;BME280;75150;54.494;18.518;2024-03-29T08:39:09;99016.25;;;23.47;34.20
84888;BME280;75150;54.494;18.518;2024-03-29T08:41:10;99014.50;;;23.92;33.50
84888;BME280;75150;54.494;18.518;2024-03-29T08:43:11;99017.25;;;24.38;34.17
84888;BME280;75150;54.494;18.518;2024-03-29T08:45:12;99027.97;;;24.83;33.53
84888;BME280;75150;54.494;18.518;2024-03-29T08:47:13;99023.56;;;25.10;33.69
84888;BME280;75150;54.494;18.518;2024-03-29T08:49:14;99027.88;;;25.50;33.24
84888;BME280;75150;54.494;18.518;2024-03-29T08:51:15;99030.63;;;25.55;32.72
84888;BME280;75150;54.494;18.518;2024-03-29T08:53:17;99030.50;;;25.23;29.30
84888;BME280;75150;54.494;18.518;2024-03-29T08:55:18;99038.50;;;25.13;32.11
84888;BME280;75150;54.494;18.518;2024-03-29T08:57:18;99038.66;;;24.39;29.45
84888;BME280;75150;54.494;18.518;2024-03-29T08:59:19;99035.75;;;23.49;31.92
84888;BME280;75150;54.494;18.518;2024-03-29T09:01:20;99038.84;;;23.41;32.18
84888;BME280;75150;54.494;18.518;2024-03-29T09:03:21;99037.28;;;23.56;31.83
84888;BME280;75150;54.494;18.518;2024-03-29T09:05:22;99037.41;;;24.02;29.87
84888;BME280;75150;54.494;18.518;2024-03-29T09:07:23;99046.78;;;24.11;31.58
84888;BME280;75150;54.494;18.518;2024-03-29T09:09:25;99054.22;;;24.32;31.00
84888;BME280;75150;54.494;18.518;2024-03-29T09:11:26;99054.66;;;24.58;31.54
84888;BME280;75150;54.494;18.518;2024-03-29T09:13:27;99064.19;;;24.77;31.21
84888;BME280;75150;54.494;18.518;2024-03-29T09:15:28;99068.03;;;24.64;30.18
84888;BME280;75150;54.494;18.518;2024-03-29T09:17:29;99059.00;;;24.42;30.89
84888;BME280;75150;54.494;18.518;2024-03-29T09:19:29;99069.09;;;24.18;30.58
84888;BME280;75150;54.494;18.518;2024-03-29T09:21:30;99059.94;;;24.07;29.76
84888;BME280;75150;54.494;18.518;2024-03-29T09:23:31;99061.63;;;24.37;30.68
84888;BME280;75150;54.494;18.518;2024-03-29T09:25:33;99054.81;;;24.51;28.13
84888;BME280;75150;54.494;18.518;2024-03-29T09:27:34;99057.09;;;24.59;30.54
84888;BME280;75150;54.494;18.518;2024-03-29T09:29:35;99052.63;;;24.48;27.16
84888;BME280;75150;54.494;18.518;2024-03-29T09:31:36;99047.09;;;24.43;28.45
84888;BME280;75150;54.494;18.518;2024-03-29T09:33:37;99047.34;;;24.58;29.87
84888;BME280;75150;54.494;18.518;2024-03-29T09:35:37;99040.22;;;24.86;28.84
84888;BME280;75150;54.494;18.518;2024-03-29T09:37:38;99051.47;;;25.11;29.66
84888;BME280;75150;54.494;18.518;2024-03-29T09:39:39;99041.44;;;25.50;29.74
84888;BME280;75150;54.494;18.518;2024-03-29T09:41:44;99035.09;;;25.83;25.02
84888;BME280;75150;54.494;18.518;2024-03-29T09:43:47;99044.34;;;25.87;29.05
84888;BME280;75150;54.494;18.518;2024-03-29T09:45:48;99034.06;;;25.89;28.91
84888;BME280;75150;54.494;18.518;2024-03-29T09:47:50;99049.66;;;25.99;29.02
84888;BME280;75150;54.494;18.518;2024-03-29T09:49:53;99039.28;;;26.18;26.75
84888;BME280;75150;54.494;18.518;2024-03-29T09:51:55;99055.13;;;26.04;26.17
84888;BME280;75150;54.494;18.518;2024-03-29T09:53:59;99069.28;;;24.73;26.02
84888;BME280;75150;54.494;18.518;2024-03-29T09:56:00;99062.03;;;24.17;28.02
84888;BME280;75150;54.494;18.518;2024-03-29T09:58:05;99077.03;;;23.67;24.99
84888;BME280;75150;54.494;18.518;2024-03-29T10:00:07;99080.81;;;23.20;28.98
84888;BME280;75150;54.494;18.518;2024-03-29T10:02:14;99074.41;;;22.67;28.37
84888;BME280;75150;54.494;18.518;2024-03-29T10:04:15;99084.13;;;22.57;29.24
84888;BME280;75150;54.494;18.518;2024-03-29T10:06:18;99082.16;;;22.34;29.58
84888;BME280;75150;54.494;18.518;2024-03-29T10:08:19;99080.72;;;22.19;29.17
84888;BME280;75150;54.494;18.518;2024-03-29T10:10:20;99083.66;;;22.18;29.66
84888;BME280;75150;54.494;18.518;2024-03-29T10:12:20;99087.25;;;21.93;29.19
84888;BME280;75150;54.494;18.518;2024-03-29T10:14:23;99075.75;;;22.16;29.96
84888;BME280;75150;54.494;18.518;2024-03-29T10:16:23;99084.09;;;22.15;28.76
84888;BME280;75150;54.494;18.518;2024-03-29T10:18:26;99089.28;;;21.80;28.71
84888;BME280;75150;54.494;18.518;2024-03-29T10:20:27;99101.03;;;21.49;29.63
84888;BME280;75150;54.494;18.518;2024-03-29T10:22:28;99093.56;;;21.69;30.13
84888;BME280;75150;54.494;18.518;2024-03-29T10:24:29;99093.47;;;21.76;29.65
84888;BME280;75150;54.494;18.518;2024-03-29T10:26:29;99106.06;;;21.82;29.39
84888;BME280;75150;54.494;18.518;2024-03-29T10:28:31;99103.28;;;21.88;29.56
84888;BME280;75150;54.494;18.518;2024-03-29T10:30:34;99104.34;;;22.06;28.69
84888;BME280;75150;54.494;18.518;2024-03-29T10:32:34;99105.44;;;21.98;29.46
84888;BME280;75150;54.494;18.518;2024-03-29T10:34:37;99103.81;;;21.60;27.09
84888;BME280;75150;54.494;18.518;2024-03-29T10:36:38;99113.38;;;20.63;30.10
84888;BME280;75150;54.494;18.518;2024-03-29T10:38:40;99114.34;;;20.37;30.46